Southmayd, Texas
Current Conditions -  °F | °C
As of 8:15 PM on Monday 22 Dec 2014 (Local Time) from KGYI Reporting Station
Clear Clear  
Wind Chill: 54°   Ceiling: Unl
Heat Index: 54°   Visibility: 10mi
Dew Point: 43°   Wind: 0mph
Humidity: 67%   Direction: NA
Pressure: 29.68"   Gusts: NA
Location:  33.63°N, 96.77°W
Report Text: KGYI 230215Z AUTO 00000KT 10SM CLR 12/06 A2968 RMK AO2 T01200061
Loading
Personal Weather Stations






























Interactive Weather Map New forecast layout! Learn more

10-Day Weather Forecast

Advertisements
Track Severe Weather on mobile